Time;durP1;ratioP1;P1;durP2;ratioP2;P2;SDS_P1;SDS_P2;PMS_P1;PMS_P2;Temp;Humidity;BMP_temperature;BMP_pressure;BME280_temperature;BME280_humidity;BME280_pressure;Samples;Min_cycle;Max_cycle;Signal;HPM_P1;HPM_P2
2022/07/21 00:01:36;;;;;;;2.10;1.70;;;;;;;;;;4233967;33;20101;-68
2022/07/21 00:04:03;;;;;;;2.80;1.77;;;;;;;;;;4233759;33;20123;-69
2022/07/21 00:34:56;;;;;;;5.18;1.87;;;;;;;;;;4693882;28;20077;-62
2022/07/21 00:37:23;;;;;;;1.70;1.58;;;;;;;;;;4246350;33;20175;-63
2022/07/21 00:39:51;;;;;;;3.08;1.90;;;;;;;;;;4234557;33;20116;-63
2022/07/21 00:42:35;;;;;;;4.25;1.62;;;;;;;;;;4247548;33;20196;-63
2022/07/21 00:45:03;;;;;;;1.67;1.50;;;;;;;;;;4247384;33;20191;-63
2022/07/21 00:47:30;;;;;;;3.62;1.60;;;;;;;;;;4247410;33;20231;-63
2022/07/21 00:49:57;;;;;;;1.75;1.65;;;;;;;;;;4247434;33;20100;-62
2022/07/21 00:52:24;;;;;;;4.78;1.85;;;;;;;;;;4247432;33;20203;-63
2022/07/21 00:54:50;;;;;;;1.90;1.80;;;;;;;;;;4247226;33;20213;-64
2022/07/21 00:57:16;;;;;;;3.78;2.37;;;;;;;;;;4234651;33;20112;-62
2022/07/21 00:59:43;;;;;;;4.07;2.03;;;;;;;;;;4247508;33;20112;-64
2022/07/21 01:02:10;;;;;;;7.78;1.83;;;;;;;;;;4247033;33;20116;-63
2022/07/21 01:04:36;;;;;;;2.45;2.05;;;;;;;;;;4247110;33;20516;-64
2022/07/21 01:07:03;;;;;;;3.85;1.73;;;;;;;;;;4247525;33;20089;-63
2022/07/21 01:09:30;;;;;;;3.70;2.03;;;;;;;;;;4247313;33;20448;-65
2022/07/21 01:11:57;;;;;;;2.58;1.90;;;;;;;;;;4247346;33;20113;-64
2022/07/21 01:14:24;;;;;;;5.05;2.00;;;;;;;;;;4234348;33;20112;-67
2022/07/21 01:16:50;;;;;;;5.07;2.10;;;;;;;;;;4233989;33;20100;-67
2022/07/21 01:19:16;;;;;;;2.22;2.03;;;;;;;;;;4234153;33;20112;-67
2022/07/21 01:21:44;;;;;;;3.90;1.87;;;;;;;;;;4233858;33;20089;-68
2022/07/21 01:24:11;;;;;;;3.60;1.77;;;;;;;;;;4233946;33;20524;-67
2022/07/21 01:26:45;;;;;;;3.40;2.10;;;;;;;;;;4247061;33;20532;-67
2022/07/21 01:29:11;;;;;;;2.05;1.92;;;;;;;;;;4234268;33;20214;-67
2022/07/21 01:31:38;;;;;;;2.97;2.20;;;;;;;;;;4247067;33;20104;-68
2022/07/21 01:34:05;;;;;;;5.93;2.30;;;;;;;;;;4246990;33;20113;-67
2022/07/21 01:36:31;;;;;;;5.80;2.30;;;;;;;;;;4246965;33;20532;-67
2022/07/21 01:41:43;;;;;;;4.07;2.00;;;;;;;;;;4246933;33;20176;-67
2022/07/21 01:44:10;;;;;;;3.35;2.60;;;;;;;;;;4246815;33;20198;-67
2022/07/21 01:46:38;;;;;;;13.23;2.28;;;;;;;;;;4246889;33;20105;-66
2022/07/21 01:49:06;;;;;;;3.47;2.70;;;;;;;;;;4233757;33;20113;-66
2022/07/21 01:51:33;;;;;;;3.92;2.20;;;;;;;;;;4233754;33;20212;-67
2022/07/21 01:53:59;;;;;;;3.85;1.98;;;;;;;;;;4233887;33;20108;-67
2022/07/21 01:56:26;;;;;;;7.45;2.55;;;;;;;;;;4246839;33;20513;-67
2022/07/21 01:58:54;;;;;;;9.15;2.37;;;;;;;;;;4246992;33;20207;-67
2022/07/21 02:01:22;;;;;;;3.62;2.05;;;;;;;;;;4246172;33;20132;-67
2022/07/21 02:03:49;;;;;;;3.50;2.00;;;;;;;;;;4246584;33;20158;-67
2022/07/21 02:06:15;;;;;;;3.25;2.20;;;;;;;;;;4246737;33;20128;-67
2022/07/21 02:08:42;;;;;;;6.12;2.30;;;;;;;;;;4233844;33;20096;-67
2022/07/21 02:11:09;;;;;;;4.18;2.30;;;;;;;;;;4233483;33;20111;-67
2022/07/21 02:13:35;;;;;;;2.45;2.00;;;;;;;;;;4246791;33;20748;-67
2022/07/21 02:16:01;;;;;;;3.25;2.00;;;;;;;;;;4233468;33;20100;-69
2022/07/21 02:18:28;;;;;;;2.85;1.98;;;;;;;;;;4246704;33;20192;-67
2022/07/21 02:20:54;;;;;;;6.28;2.10;;;;;;;;;;4246489;33;20113;-67
2022/07/21 02:23:21;;;;;;;4.60;2.30;;;;;;;;;;4233462;33;20552;-68
2022/07/21 02:25:47;;;;;;;4.12;2.20;;;;;;;;;;4233600;33;20094;-67
2022/07/21 02:28:13;;;;;;;6.50;2.35;;;;;;;;;;4246657;33;20191;-67
2022/07/21 02:30:40;;;;;;;3.83;2.50;;;;;;;;;;4221652;33;20184;-67
2022/07/21 02:33:06;;;;;;;6.80;2.90;;;;;;;;;;4233437;33;20495;-67
2022/07/21 02:35:32;;;;;;;2.50;2.00;;;;;;;;;;4246474;33;20116;-67
2022/07/21 02:37:58;;;;;;;4.00;2.53;;;;;;;;;;4246736;33;20123;-67
2022/07/21 02:40:25;;;;;;;7.65;2.10;;;;;;;;;;4246473;33;20545;-67
2022/07/21 02:42:50;;;;;;;10.20;4.30;;;;;;;;;;4233348;33;20109;-67
2022/07/21 02:45:16;;;;;;;3.42;2.10;;;;;;;;;;4246469;33;20534;-67
2022/07/21 02:48:00;;;;;;;5.45;1.95;;;;;;;;;;4246339;33;20305;-67
2022/07/21 02:50:28;;;;;;;2.80;2.15;;;;;;;;;;4246423;33;20120;-67
2022/07/21 02:53:01;;;;;;;4.55;2.28;;;;;;;;;;4233532;33;20444;-68
2022/07/21 02:55:27;;;;;;;4.90;2.15;;;;;;;;;;4246116;33;20100;-67
2022/07/21 02:58:14;;;;;;;4.35;2.40;;;;;;;;;;4233212;33;20444;-68
2022/07/21 03:00:46;;;;;;;6.80;2.05;;;;;;;;;;4246355;33;20117;-67
2022/07/21 03:03:12;;;;;;;6.50;2.33;;;;;;;;;;4233054;33;20138;-67
2022/07/21 03:05:38;;;;;;;6.78;2.30;;;;;;;;;;4246411;33;20101;-67
2022/07/21 03:08:05;;;;;;;8.10;2.70;;;;;;;;;;4233382;33;20092;-67
2022/07/21 03:10:31;;;;;;;4.10;2.20;;;;;;;;;;4232980;33;20114;-66
2022/07/21 03:12:57;;;;;;;6.62;2.47;;;;;;;;;;4245232;33;20128;-67
2022/07/21 03:15:23;;;;;;;11.25;2.67;;;;;;;;;;4246141;33;20128;-67
2022/07/21 03:17:49;;;;;;;6.65;2.72;;;;;;;;;;4246305;33;20223;-68
2022/07/21 03:20:15;;;;;;;11.12;2.95;;;;;;;;;;4246037;33;20132;-68
2022/07/21 03:22:41;;;;;;;2.90;2.33;;;;;;;;;;4232973;33;20112;-68
2022/07/21 03:25:08;;;;;;;5.87;3.20;;;;;;;;;;4245828;33;20128;-69
2022/07/21 03:27:36;;;;;;;9.20;4.22;;;;;;;;;;4221293;33;20464;-67
2022/07/21 03:30:07;;;;;;;9.10;5.90;;;;;;;;;;4245952;33;20105;-67
2022/07/21 03:32:33;;;;;;;11.23;6.05;;;;;;;;;;4245946;33;20093;-68
2022/07/21 03:35:00;;;;;;;9.55;5.32;;;;;;;;;;4232986;33;20192;-66
2022/07/21 03:37:26;;;;;;;8.10;4.53;;;;;;;;;;4245892;33;20235;-66
2022/07/21 03:39:52;;;;;;;7.55;4.00;;;;;;;;;;4232832;33;20120;-66
2022/07/21 03:42:18;;;;;;;10.18;3.00;;;;;;;;;;4245840;33;20510;-66
2022/07/21 03:44:44;;;;;;;5.03;2.53;;;;;;;;;;4245559;33;20108;-66
2022/07/21 03:47:10;;;;;;;6.62;3.17;;;;;;;;;;4232780;33;20653;-66
2022/07/21 03:49:36;;;;;;;3.25;2.30;;;;;;;;;;4245770;33;20179;-66
2022/07/21 03:52:03;;;;;;;7.75;2.35;;;;;;;;;;4245843;33;20128;-67
2022/07/21 03:54:29;;;;;;;7.65;2.45;;;;;;;;;;4232901;33;20104;-67
2022/07/21 03:56:55;;;;;;;4.32;2.95;;;;;;;;;;4245721;33;20084;-67
2022/07/21 03:59:21;;;;;;;7.80;2.35;;;;;;;;;;4245897;33;20095;-63
2022/07/21 04:01:47;;;;;;;3.40;2.03;;;;;;;;;;4245588;33;20124;-63
2022/07/21 04:04:13;;;;;;;2.60;2.12;;;;;;;;;;4245937;33;20540;-63
2022/07/21 04:06:39;;;;;;;4.37;1.75;;;;;;;;;;4245635;33;20125;-64
2022/07/21 04:09:05;;;;;;;2.95;2.17;;;;;;;;;;4232537;33;20115;-64
2022/07/21 04:11:31;;;;;;;4.50;2.42;;;;;;;;;;4245649;33;20109;-64
2022/07/21 04:13:57;;;;;;;6.15;2.10;;;;;;;;;;4220972;33;20101;-67
2022/07/21 04:16:23;;;;;;;4.20;1.75;;;;;;;;;;4232297;33;20115;-63
2022/07/21 04:18:49;;;;;;;3.22;2.53;;;;;;;;;;4245571;33;20121;-63
2022/07/21 04:21:15;;;;;;;5.62;1.80;;;;;;;;;;4245611;33;20225;-63
2022/07/21 04:23:41;;;;;;;4.87;2.80;;;;;;;;;;4246885;33;20117;-63
2022/07/21 04:26:07;;;;;;;2.67;2.28;;;;;;;;;;4247845;33;20199;-63
2022/07/21 04:28:33;;;;;;;4.20;2.40;;;;;;;;;;4247477;33;20100;-63
2022/07/21 04:30:59;;;;;;;2.45;2.00;;;;;;;;;;4247825;33;20188;-63
2022/07/21 04:33:25;;;;;;;7.40;2.20;;;;;;;;;;4247801;33;20108;-64
2022/07/21 04:35:51;;;;;;;2.15;1.70;;;;;;;;;;4247549;33;20552;-64
2022/07/21 04:38:18;;;;;;;3.25;1.85;;;;;;;;;;4247696;33;20124;-64
2022/07/21 04:40:44;;;;;;;10.85;2.33;;;;;;;;;;4247822;33;20215;-64
2022/07/21 04:43:10;;;;;;;3.25;2.10;;;;;;;;;;4247680;33;20509;-63
2022/07/21 04:45:36;;;;;;;2.47;1.98;;;;;;;;;;4247534;33;20124;-64
2022/07/21 04:48:02;;;;;;;7.40;2.30;;;;;;;;;;4247632;33;20204;-63
2022/07/21 04:50:29;;;;;;;6.85;2.12;;;;;;;;;;4247613;33;20136;-63
2022/07/21 04:52:55;;;;;;;4.07;2.20;;;;;;;;;;4247926;33;20105;-63
2022/07/21 04:55:22;;;;;;;8.65;2.37;;;;;;;;;;4247850;33;20741;-64
2022/07/21 04:57:50;;;;;;;6.10;2.20;;;;;;;;;;4247799;33;20200;-63
2022/07/21 05:00:21;;;;;;;8.02;2.20;;;;;;;;;;4247728;33;20680;-63
2022/07/21 05:02:48;;;;;;;3.03;2.00;;;;;;;;;;4247783;33;20108;-64
2022/07/21 05:05:14;;;;;;;3.92;2.30;;;;;;;;;;4247557;33;20136;-64
2022/07/21 05:07:40;;;;;;;10.15;2.37;;;;;;;;;;4247883;33;20093;-64
2022/07/21 05:10:11;;;;;;;5.95;1.90;;;;;;;;;;4247434;33;20465;-61
2022/07/21 05:12:38;;;;;;;8.45;2.30;;;;;;;;;;4247416;33;20112;-63
2022/07/21 05:15:09;;;;;;;4.43;1.87;;;;;;;;;;4247465;33;20522;-63
2022/07/21 05:17:35;;;;;;;5.65;2.00;;;;;;;;;;4247416;33;20875;-63
2022/07/21 05:20:01;;;;;;;5.22;1.98;;;;;;;;;;4247425;33;20093;-63
2022/07/21 05:22:27;;;;;;;2.35;2.03;;;;;;;;;;4234347;33;20675;-63
2022/07/21 05:24:53;;;;;;;4.97;1.80;;;;;;;;;;4247225;33;20115;-64
2022/07/21 05:27:19;;;;;;;5.95;2.22;;;;;;;;;;4247293;33;20093;-64
2022/07/21 05:29:45;;;;;;;8.18;2.00;;;;;;;;;;4247203;33;20203;-63
2022/07/21 05:32:11;;;;;;;2.67;1.85;;;;;;;;;;4247261;33;20121;-63
2022/07/21 05:34:37;;;;;;;4.12;2.28;;;;;;;;;;4246335;33;20512;-64
2022/07/21 05:37:03;;;;;;;4.87;2.20;;;;;;;;;;4247257;33;20196;-64
2022/07/21 05:39:29;;;;;;;2.90;2.10;;;;;;;;;;4247116;33;20136;-63
2022/07/21 05:41:55;;;;;;;9.93;2.30;;;;;;;;;;4247404;33;20105;-62
2022/07/21 05:44:21;;;;;;;2.50;2.12;;;;;;;;;;4234174;33;20465;-63
2022/07/21 05:46:47;;;;;;;6.82;2.03;;;;;;;;;;4247094;33;20209;-63
2022/07/21 05:49:13;;;;;;;3.53;1.87;;;;;;;;;;4247085;33;20128;-63
2022/07/21 05:51:39;;;;;;;2.65;2.00;;;;;;;;;;4247325;33;20464;-63
2022/07/21 05:54:05;;;;;;;1.60;1.50;;;;;;;;;;4247003;33;20131;-63
2022/07/21 05:56:31;;;;;;;9.18;2.47;;;;;;;;;;4234145;33;20125;-63
2022/07/21 05:58:57;;;;;;;4.68;2.08;;;;;;;;;;4246833;33;20135;-64
2022/07/21 06:01:23;;;;;;;3.20;2.25;;;;;;;;;;4247070;33;20112;-64
2022/07/21 06:03:51;;;;;;;2.40;1.80;;;;;;;;;;4246790;33;20172;-64
2022/07/21 06:06:19;;;;;;;7.30;1.92;;;;;;;;;;4222445;33;20121;-63
2022/07/21 06:08:47;;;;;;;4.72;1.67;;;;;;;;;;4247076;33;20115;-63
2022/07/21 06:11:15;;;;;;;2.17;1.95;;;;;;;;;;4246931;33;20461;-63
2022/07/21 06:13:41;;;;;;;2.90;2.10;;;;;;;;;;4246698;33;20211;-63
2022/07/21 06:16:07;;;;;;;4.40;2.40;;;;;;;;;;4247093;33;20112;-64
2022/07/21 06:18:34;;;;;;;7.12;2.42;;;;;;;;;;4246874;33;20472;-63
2022/07/21 06:21:00;;;;;;;3.00;1.75;;;;;;;;;;4246837;33;20104;-64
2022/07/21 06:23:27;;;;;;;10.10;3.33;;;;;;;;;;4246872;33;20515;-63
2022/07/21 06:25:56;;;;;;;3.90;1.92;;;;;;;;;;4222098;33;20212;-64
2022/07/21 06:28:22;;;;;;;4.30;1.80;;;;;;;;;;4221861;33;20601;-65
2022/07/21 06:30:49;;;;;;;8.73;2.08;;;;;;;;;;4246864;33;20583;-63
2022/07/21 06:33:15;;;;;;;4.78;1.92;;;;;;;;;;4247009;33;20088;-63
2022/07/21 06:35:41;;;;;;;7.00;3.45;;;;;;;;;;4233446;33;20183;-64
2022/07/21 06:38:07;;;;;;;2.37;1.85;;;;;;;;;;4246712;33;20529;-64
2022/07/21 06:40:33;;;;;;;5.57;1.55;;;;;;;;;;4233612;33;20119;-64
2022/07/21 06:42:59;;;;;;;2.45;1.90;;;;;;;;;;4246702;33;20140;-64
2022/07/21 06:45:25;;;;;;;6.10;1.80;;;;;;;;;;4246626;33;20203;-65
2022/07/21 06:48:00;;;;;;;5.32;1.73;;;;;;;;;;4246201;33;20216;-65
2022/07/21 06:50:26;;;;;;;5.30;1.70;;;;;;;;;;4245001;33;20453;-65
2022/07/21 06:52:52;;;;;;;2.92;1.80;;;;;;;;;;4246585;33;20124;-65
2022/07/21 06:55:18;;;;;;;2.35;2.00;;;;;;;;;;4246506;33;20128;-65
2022/07/21 06:57:44;;;;;;;2.35;1.85;;;;;;;;;;4233126;33;20139;-65
2022/07/21 07:00:11;;;;;;;5.12;1.90;;;;;;;;;;4246772;33;20521;-64
2022/07/21 07:02:37;;;;;;;3.58;1.70;;;;;;;;;;4246462;33;20093;-65
2022/07/21 07:05:03;;;;;;;6.25;1.58;;;;;;;;;;4233183;33;20133;-63
2022/07/21 07:07:30;;;;;;;2.58;1.48;;;;;;;;;;4246425;33;20437;-64
2022/07/21 07:09:56;;;;;;;1.83;1.73;;;;;;;;;;4246469;33;20101;-64
2022/07/21 07:12:22;;;;;;;2.62;1.77;;;;;;;;;;4233269;33;20139;-64
2022/07/21 07:14:48;;;;;;;3.35;1.58;;;;;;;;;;4246416;33;20125;-64
2022/07/21 07:17:20;;;;;;;5.40;1.73;;;;;;;;;;4246335;33;20136;-66
2022/07/21 07:19:47;;;;;;;4.50;1.80;;;;;;;;;;4246273;33;20512;-64
2022/07/21 07:22:13;;;;;;;1.80;1.70;;;;;;;;;;4246292;33;20548;-65
2022/07/21 07:24:39;;;;;;;1.90;1.70;;;;;;;;;;4246379;33;20137;-65
2022/07/21 07:27:06;;;;;;;1.62;1.50;;;;;;;;;;4233145;33;20216;-65
2022/07/21 07:29:32;;;;;;;5.07;1.80;;;;;;;;;;4245708;33;20121;-65
2022/07/21 07:31:59;;;;;;;9.48;1.83;;;;;;;;;;4246383;33;20140;-66
2022/07/21 07:34:25;;;;;;;6.12;1.95;;;;;;;;;;4246221;33;20239;-65
2022/07/21 07:36:51;;;;;;;2.05;1.70;;;;;;;;;;4246134;33;20525;-64
2022/07/21 07:39:16;;;;;;;3.08;1.60;;;;;;;;;;4246072;33;20113;-63
2022/07/21 07:41:43;;;;;;;8.65;1.98;;;;;;;;;;4246372;33;20123;-64
2022/07/21 07:44:10;;;;;;;3.00;1.80;;;;;;;;;;4245905;33;20137;-63
2022/07/21 07:46:36;;;;;;;5.43;1.90;;;;;;;;;;4245671;33;20100;-65
2022/07/21 07:49:02;;;;;;;3.35;2.30;;;;;;;;;;4245821;33;20204;-64
2022/07/21 07:51:28;;;;;;;3.95;1.75;;;;;;;;;;4245999;33;20969;-65
2022/07/21 07:53:54;;;;;;;4.80;1.65;;;;;;;;;;4245829;33;20111;-62
2022/07/21 07:56:20;;;;;;;5.12;1.92;;;;;;;;;;4246114;33;20120;-64
2022/07/21 07:58:46;;;;;;;3.72;2.00;;;;;;;;;;4233877;33;20112;-63
2022/07/21 08:01:13;;;;;;;4.47;2.00;;;;;;;;;;4248262;33;20556;-65
2022/07/21 08:03:39;;;;;;;8.07;2.10;;;;;;;;;;4247948;33;20190;-63
2022/07/21 08:06:06;;;;;;;5.10;3.53;;;;;;;;;;4247899;33;20235;-62
2022/07/21 08:08:33;;;;;;;3.37;2.03;;;;;;;;;;4248047;33;20155;-62
2022/07/21 08:10:59;;;;;;;4.12;2.10;;;;;;;;;;4247972;33;20120;-63
2022/07/21 08:13:25;;;;;;;9.80;2.10;;;;;;;;;;4248114;33;20101;-64
2022/07/21 08:15:52;;;;;;;3.70;2.00;;;;;;;;;;4247817;33;20116;-63
2022/07/21 08:18:18;;;;;;;4.82;2.85;;;;;;;;;;4247950;33;20476;-63
2022/07/21 08:20:45;;;;;;;3.65;2.37;;;;;;;;;;4247851;33;20116;-65
2022/07/21 08:23:12;;;;;;;5.80;2.35;;;;;;;;;;4247851;33;20124;-63
2022/07/21 08:25:38;;;;;;;2.15;1.95;;;;;;;;;;4248236;33;20108;-63
2022/07/21 08:28:04;;;;;;;3.20;2.08;;;;;;;;;;4247974;33;20131;-63
2022/07/21 08:30:30;;;;;;;4.80;2.15;;;;;;;;;;4247787;33;20117;-63
2022/07/21 08:33:00;;;;;;;6.45;2.08;;;;;;;;;;4247776;33;20525;-63
2022/07/21 08:35:26;;;;;;;1.30;1.20;;;;;;;;;;4247768;33;20133;-63
2022/07/21 08:37:55;;;;;;;3.58;1.98;;;;;;;;;;4247730;33;20130;-64
2022/07/21 08:40:24;;;;;;;3.90;2.85;;;;;;;;;;4247857;33;20121;-63
2022/07/21 08:42:51;;;;;;;1.95;1.77;;;;;;;;;;4247715;33;20678;-63
2022/07/21 08:45:17;;;;;;;4.62;1.90;;;;;;;;;;4247682;33;20543;-63
2022/07/21 08:47:43;;;;;;;6.28;2.05;;;;;;;;;;4234553;33;20537;-63
2022/07/21 08:50:09;;;;;;;3.80;2.25;;;;;;;;;;4247652;33;20551;-63
2022/07/21 08:52:35;;;;;;;8.02;2.15;;;;;;;;;;4247895;33;20128;-64
2022/07/21 08:55:02;;;;;;;1.62;1.37;;;;;;;;;;4247663;33;20127;-63
2022/07/21 08:57:28;;;;;;;4.87;2.70;;;;;;;;;;4247844;33;20110;-64
2022/07/21 08:59:54;;;;;;;5.97;3.03;;;;;;;;;;4247373;33;20121;-63
2022/07/21 09:02:27;;;;;;;8.75;2.37;;;;;;;;;;4247545;33;20504;-63
2022/07/21 09:04:53;;;;;;;4.40;2.67;;;;;;;;;;4247321;33;20104;-63
2022/07/21 09:07:22;;;;;;;4.07;2.30;;;;;;;;;;4247735;33;20426;-63
2022/07/21 09:09:58;;;;;;;4.10;2.35;;;;;;;;;;4233959;33;20148;-62
2022/07/21 09:12:25;;;;;;;8.68;2.55;;;;;;;;;;4247738;33;20117;-63
2022/07/21 09:14:51;;;;;;;2.40;1.70;;;;;;;;;;4247351;33;20120;-63
2022/07/21 09:17:19;;;;;;;13.07;2.35;;;;;;;;;;4247662;33;20196;-63
2022/07/21 09:19:46;;;;;;;3.60;1.95;;;;;;;;;;4234152;33;20282;-63
2022/07/21 09:22:18;;;;;;;3.17;2.12;;;;;;;;;;4234210;33;20108;-63
2022/07/21 09:24:52;;;;;;;4.10;2.40;;;;;;;;;;4234084;33;20533;-66
2022/07/21 09:27:23;;;;;;;3.75;1.70;;;;;;;;;;4234369;33;20195;-64
2022/07/21 09:29:52;;;;;;;3.15;2.15;;;;;;;;;;4247238;33;20667;-63
2022/07/21 09:32:26;;;;;;;7.85;2.50;;;;;;;;;;4222405;33;20204;-64
2022/07/21 09:35:00;;;;;;;5.93;2.50;;;;;;;;;;4234027;33;20559;-63
2022/07/21 09:37:26;;;;;;;11.82;2.87;;;;;;;;;;4199669;33;20113;-63
2022/07/21 09:39:54;;;;;;;5.28;2.30;;;;;;;;;;4247335;33;20136;-61
2022/07/21 09:42:29;;;;;;;4.20;2.03;;;;;;;;;;4234042;33;20096;-62
2022/07/21 09:45:06;;;;;;;2.28;1.90;;;;;;;;;;4247009;33;20144;-63
2022/07/21 09:47:33;;;;;;;5.62;2.60;;;;;;;;;;4247164;33;20445;-64
2022/07/21 09:50:00;;;;;;;4.70;2.33;;;;;;;;;;4247183;33;20121;-64
2022/07/21 09:52:29;;;;;;;3.80;2.08;;;;;;;;;;4222532;33;20091;-65
2022/07/21 09:54:57;;;;;;;4.45;2.20;;;;;;;;;;4247016;33;20124;-65
2022/07/21 09:57:24;;;;;;;5.93;2.60;;;;;;;;;;4247255;33;20101;-64
2022/07/21 09:59:50;;;;;;;7.62;2.87;;;;;;;;;;4247011;33;20123;-64
2022/07/21 10:02:22;;;;;;;7.82;2.08;;;;;;;;;;4247062;33;20113;-65
2022/07/21 10:05:26;;;;;;;8.30;2.10;;;;;;;;;;4246841;33;20140;-64
2022/07/21 10:07:53;;;;;;;4.30;2.22;;;;;;;;;;4188791;34;20114;-64
2022/07/21 10:10:19;;;;;;;2.85;1.80;;;;;;;;;;4188650;34;20152;-64
2022/07/21 10:12:46;;;;;;;3.20;1.92;;;;;;;;;;4216037;33;20136;-64
2022/07/21 10:15:12;;;;;;;6.05;2.00;;;;;;;;;;4246987;33;20513;-65
2022/07/21 10:17:38;;;;;;;2.33;1.90;;;;;;;;;;4247000;33;20117;-63
2022/07/21 10:20:07;;;;;;;4.87;2.17;;;;;;;;;;4247022;33;20107;-64
2022/07/21 10:22:56;;;;;;;8.80;2.45;;;;;;;;;;4246443;33;20120;-64
2022/07/21 10:25:23;;;;;;;8.60;1.98;;;;;;;;;;4247030;33;20210;-63
2022/07/21 10:28:11;;;;;;;2.87;1.90;;;;;;;;;;4199131;33;20103;-64
2022/07/21 10:30:38;;;;;;;3.80;1.73;;;;;;;;;;4246820;33;20097;-65
2022/07/21 10:33:04;;;;;;;5.32;1.90;;;;;;;;;;4210455;33;20116;-65
2022/07/21 10:35:31;;;;;;;7.43;1.95;;;;;;;;;;4233604;33;20212;-65
2022/07/21 10:37:58;;;;;;;3.97;1.62;;;;;;;;;;4233621;33;20472;-66
2022/07/21 10:40:33;;;;;;;3.37;2.35;;;;;;;;;;4246857;33;20198;-64
2022/07/21 10:42:59;;;;;;;;;;;;;;;;;;4247304;33;20149;-64
2022/07/21 10:45:39;;;;;;;6.15;1.90;;;;;;;;;;4246904;33;19988;-64
2022/07/21 10:48:07;;;;;;;8.60;2.00;;;;;;;;;;4246650;33;20112;-62
2022/07/21 10:50:40;;;;;;;4.40;2.95;;;;;;;;;;4246593;33;20441;-62
2022/07/21 10:53:14;;;;;;;2.92;1.80;;;;;;;;;;4246619;33;20117;-62
2022/07/21 10:55:55;;;;;;;2.03;1.73;;;;;;;;;;4246388;33;20159;-64
2022/07/21 10:58:40;;;;;;;2.87;2.15;;;;;;;;;;4233353;33;20097;-63
2022/07/21 11:01:15;;;;;;;10.25;2.90;;;;;;;;;;4233281;33;20165;-63
2022/07/21 11:03:45;;;;;;;;;;;;;;;;;;4247005;33;20211;-63
2022/07/21 11:06:24;;;;;;;1.73;1.48;;;;;;;;;;4233312;33;19979;-64
2022/07/21 11:09:04;;;;;;;3.28;2.30;;;;;;;;;;4246327;33;20128;-63
2022/07/21 11:11:38;;;;;;;6.78;2.10;;;;;;;;;;4246655;33;20525;-63
2022/07/21 11:14:12;;;;;;;8.35;2.20;;;;;;;;;;4246325;33;20564;-61
2022/07/21 11:16:41;;;;;;;6.07;2.53;;;;;;;;;;4246670;33;20105;-62
2022/07/21 11:19:39;;;;;;;9.25;2.00;;;;;;;;;;4246152;33;20120;-62
2022/07/21 11:22:29;;;;;;;3.90;1.62;;;;;;;;;;4246312;33;20117;-63
2022/07/21 11:25:00;;;;;;;3.85;1.73;;;;;;;;;;4221352;33;20616;-62
2022/07/21 11:27:27;;;;;;;2.95;1.90;;;;;;;;;;4246252;33;20552;-62
2022/07/21 11:29:56;;;;;;;3.72;2.17;;;;;;;;;;4232863;33;20120;-61
2022/07/21 11:32:23;;;;;;;2.85;2.40;;;;;;;;;;4246224;33;20131;-62
2022/07/21 11:34:53;;;;;;;5.90;2.42;;;;;;;;;;4247908;33;20164;-61
2022/07/21 11:37:30;;;;;;;8.63;2.37;;;;;;;;;;4248294;33;20428;-61
2022/07/21 11:39:56;;;;;;;4.50;2.50;;;;;;;;;;4235353;33;20131;-62
2022/07/21 11:42:24;;;;;;;3.33;2.50;;;;;;;;;;4248245;33;20128;-61
2022/07/21 11:44:50;;;;;;;4.32;1.98;;;;;;;;;;4223395;33;20513;-61
2022/07/21 11:47:17;;;;;;;3.97;2.30;;;;;;;;;;4234896;33;20127;-62
2022/07/21 11:49:44;;;;;;;4.72;1.90;;;;;;;;;;4223314;33;20414;-61
2022/07/21 11:52:12;;;;;;;3.28;1.92;;;;;;;;;;4248370;33;20176;-63
2022/07/21 11:54:42;;;;;;;2.62;2.28;;;;;;;;;;4247962;33;20195;-61
2022/07/21 11:57:09;;;;;;;2.60;2.15;;;;;;;;;;4248414;33;20203;-62
2022/07/21 11:59:36;;;;;;;6.90;2.72;;;;;;;;;;4248018;33;20112;-64
2022/07/21 12:02:17;;;;;;;4.03;2.80;;;;;;;;;;4248036;33;20116;-62
2022/07/21 12:04:58;;;;;;;4.30;2.22;;;;;;;;;;4248063;33;20116;-64
2022/07/21 12:07:40;;;;;;;1.23;1.12;;;;;;;;;;4248095;33;20521;-63
2022/07/21 12:10:09;;;;;;;6.03;2.75;;;;;;;;;;4223317;33;20120;-62
2022/07/21 12:12:38;;;;;;;10.27;2.45;;;;;;;;;;4248305;33;20116;-62
2022/07/21 12:15:23;;;;;;;4.43;2.65;;;;;;;;;;4248253;33;20216;-63
2022/07/21 12:17:49;;;;;;;7.35;2.70;;;;;;;;;;4248002;33;20115;-63
2022/07/21 12:20:25;;;;;;;4.22;1.95;;;;;;;;;;4248084;33;20528;-63
2022/07/21 12:22:51;;;;;;;2.35;1.40;;;;;;;;;;4247924;33;20144;-65
2022/07/21 12:25:18;;;;;;;3.47;2.25;;;;;;;;;;4248085;33;20525;-66
2022/07/21 12:27:49;;;;;;;2.97;1.98;;;;;;;;;;4248075;33;20128;-62
2022/07/21 12:30:34;;;;;;;5.93;2.53;;;;;;;;;;4247854;33;20512;-63
2022/07/21 12:33:09;;;;;;;4.03;2.10;;;;;;;;;;4234731;33;20113;-63
2022/07/21 12:35:35;;;;;;;;;;;;;;;;;;4248325;33;20199;-63
2022/07/21 12:38:09;;;;;;;11.65;2.33;;;;;;;;;;4247738;33;19980;-63
2022/07/21 12:40:37;;;;;;;12.02;2.37;;;;;;;;;;4247918;33;20125;-63
2022/07/21 12:43:05;;;;;;;9.70;2.08;;;;;;;;;;4247674;33;20131;-62
2022/07/21 12:45:31;;;;;;;5.78;2.05;;;;;;;;;;4247189;33;20186;-62
2022/07/21 12:48:10;;;;;;;4.00;2.20;;;;;;;;;;4247649;33;20135;-66
2022/07/21 12:50:40;;;;;;;10.20;2.62;;;;;;;;;;4234402;33;20124;-63
2022/07/21 12:53:10;;;;;;;3.97;2.12;;;;;;;;;;4234862;33;20097;-63
2022/07/21 12:55:36;;;;;;;3.60;2.12;;;;;;;;;;4247690;33;20121;-63
2022/07/21 12:58:03;;;;;;;4.97;2.17;;;;;;;;;;4247922;33;20092;-64
2022/07/21 13:00:29;;;;;;;1.92;1.55;;;;;;;;;;4247541;33;20509;-62
2022/07/21 13:02:56;;;;;;;4.68;1.90;;;;;;;;;;4247485;33;20100;-63
2022/07/21 13:05:23;;;;;;;5.10;1.98;;;;;;;;;;4247604;33;20113;-62
2022/07/21 13:07:49;;;;;;;4.18;2.10;;;;;;;;;;4247515;33;20096;-63
2022/07/21 13:10:16;;;;;;;10.80;2.25;;;;;;;;;;4247236;33;20117;-62
2022/07/21 13:12:42;;;;;;;2.60;2.25;;;;;;;;;;4247649;33;20219;-63
2022/07/21 13:15:08;;;;;;;4.80;2.25;;;;;;;;;;4247529;33;20117;-62
2022/07/21 13:17:34;;;;;;;10.82;1.45;;;;;;;;;;4247351;33;20112;-62
2022/07/21 13:20:00;;;;;;;3.00;1.85;;;;;;;;;;4247207;33;20105;-64
2022/07/21 13:22:28;;;;;;;4.28;2.33;;;;;;;;;;4247607;33;20107;-64
2022/07/21 13:24:55;;;;;;;4.60;2.42;;;;;;;;;;4247163;33;20105;-63
2022/07/21 13:27:21;;;;;;;3.65;2.30;;;;;;;;;;4247578;33;20084;-64
2022/07/21 13:29:47;;;;;;;4.78;2.15;;;;;;;;;;4247226;33;20124;-63
2022/07/21 13:32:13;;;;;;;7.65;3.20;;;;;;;;;;4247483;33;20481;-61
2022/07/21 13:34:39;;;;;;;8.77;2.40;;;;;;;;;;4247398;33;20497;-63
2022/07/21 13:37:11;;;;;;;8.48;2.80;;;;;;;;;;4247501;33;20524;-64
2022/07/21 13:39:40;;;;;;;5.85;2.37;;;;;;;;;;4234081;33;20132;-61
2022/07/21 13:42:07;;;;;;;3.12;1.70;;;;;;;;;;4247459;33;20115;-62
2022/07/21 13:44:36;;;;;;;9.52;1.83;;;;;;;;;;4199420;33;20121;-62
2022/07/21 13:47:02;;;;;;;1.80;1.65;;;;;;;;;;4234355;33;20201;-64
2022/07/21 13:49:28;;;;;;;1.98;1.75;;;;;;;;;;4247239;33;20106;-63
2022/07/21 13:51:54;;;;;;;4.30;2.30;;;;;;;;;;4247096;33;20089;-63
2022/07/21 13:54:21;;;;;;;2.62;1.58;;;;;;;;;;4234064;33;20493;-62
2022/07/21 13:56:47;;;;;;;4.47;2.50;;;;;;;;;;4246488;33;20093;-63
2022/07/21 13:59:13;;;;;;;5.53;2.20;;;;;;;;;;4247018;33;20109;-63
2022/07/21 14:01:39;;;;;;;6.75;2.42;;;;;;;;;;4247182;33;20104;-64
2022/07/21 14:04:05;;;;;;;5.43;2.20;;;;;;;;;;4247009;33;20113;-65
2022/07/21 14:06:31;;;;;;;1.20;1.20;;;;;;;;;;4247147;33;20093;-64
2022/07/21 14:08:57;;;;;;;8.38;2.30;;;;;;;;;;4247200;33;20188;-67
2022/07/21 14:11:27;;;;;;;2.95;2.03;;;;;;;;;;4247020;33;20108;-65
2022/07/21 14:13:53;;;;;;;4.07;2.17;;;;;;;;;;4246874;33;20223;-67
2022/07/21 14:16:19;;;;;;;2.12;1.60;;;;;;;;;;4246933;33;20460;-64
2022/07/21 14:18:45;;;;;;;9.23;2.00;;;;;;;;;;4233705;33;20117;-65
2022/07/21 14:21:11;;;;;;;1.50;1.40;;;;;;;;;;4246793;33;20097;-64
2022/07/21 14:23:37;;;;;;;2.00;1.70;;;;;;;;;;4246817;33;20126;-64
2022/07/21 14:26:03;;;;;;;2.60;1.90;;;;;;;;;;4246785;33;20123;-65
2022/07/21 14:28:29;;;;;;;2.85;2.08;;;;;;;;;;4246837;33;20111;-66
2022/07/21 14:30:55;;;;;;;2.92;1.65;;;;;;;;;;4247049;33;20129;-66
2022/07/21 14:33:21;;;;;;;5.35;1.77;;;;;;;;;;4233751;33;20116;-65
2022/07/21 14:35:47;;;;;;;4.75;2.12;;;;;;;;;;4232554;33;20113;-66
2022/07/21 14:38:14;;;;;;;2.50;2.10;;;;;;;;;;4220970;33;20469;-66
2022/07/21 14:40:39;;;;;;;4.20;1.83;;;;;;;;;;4225576;33;20129;-65
2022/07/21 14:43:06;;;;;;;1.90;1.70;;;;;;;;;;4232885;33;20271;-64
2022/07/21 14:45:32;;;;;;;6.25;1.98;;;;;;;;;;4227577;33;20100;-65
2022/07/21 14:47:58;;;;;;;2.60;2.40;;;;;;;;;;4218201;33;20207;-65
2022/07/21 14:50:25;;;;;;;2.22;2.03;;;;;;;;;;4231242;33;20105;-64
2022/07/21 14:52:51;;;;;;;4.20;2.37;;;;;;;;;;4231278;33;20129;-65
2022/07/21 14:55:17;;;;;;;4.30;2.28;;;;;;;;;;4218212;33;20213;-63
2022/07/21 14:57:45;;;;;;;3.42;2.10;;;;;;;;;;4216574;33;20232;-65
2022/07/21 15:00:11;;;;;;;3.25;2.00;;;;;;;;;;4218147;33;20588;-65
2022/07/21 15:02:37;;;;;;;3.05;2.10;;;;;;;;;;4231231;33;20228;-66
2022/07/21 15:05:04;;;;;;;5.47;2.30;;;;;;;;;;4229285;33;20207;-67
2022/07/21 15:07:30;;;;;;;7.30;2.33;;;;;;;;;;4231009;33;20105;-65
2022/07/21 15:09:58;;;;;;;2.10;1.87;;;;;;;;;;4217006;33;20217;-66
2022/07/21 15:12:24;;;;;;;2.80;2.00;;;;;;;;;;4227673;33;20133;-65
2022/07/21 15:14:50;;;;;;;1.95;1.60;;;;;;;;;;4230782;33;20208;-67
2022/07/21 15:17:17;;;;;;;2.65;2.10;;;;;;;;;;4231857;33;20093;-64
2022/07/21 15:19:44;;;;;;;3.37;2.22;;;;;;;;;;4219613;33;20121;-64